sensor_id;sensor_type;location;lat;lon;timestamp;pressure;altitude;pressure_sealevel;temperature;humidity
35848;BME280;22332;51.954;20.118;2023-04-10T00:02:19;100974.27;;;8.23;74.16
35848;BME280;22332;51.954;20.118;2023-04-10T00:05:24;100971.66;;;8.22;74.09
35848;BME280;22332;51.954;20.118;2023-04-10T00:08:30;100968.69;;;8.22;74.13
35848;BME280;22332;51.954;20.118;2023-04-10T00:11:35;100964.55;;;8.16;73.61
35848;BME280;22332;51.954;20.118;2023-04-10T00:14:41;100969.40;;;8.11;73.73
35848;BME280;22332;51.954;20.118;2023-04-10T00:17:46;100971.79;;;8.05;73.54
35848;BME280;22332;51.954;20.118;2023-04-10T00:20:53;100968.91;;;7.99;73.48
35848;BME280;22332;51.954;20.118;2023-04-10T00:23:59;100972.52;;;7.91;73.25
35848;BME280;22332;51.954;20.118;2023-04-10T00:27:04;100975.82;;;7.82;73.72
35848;BME280;22332;51.954;20.118;2023-04-10T00:30:11;100974.17;;;7.76;73.62
35848;BME280;22332;51.954;20.118;2023-04-10T00:33:16;100969.48;;;7.73;73.72
35848;BME280;22332;51.954;20.118;2023-04-10T00:36:21;100972.05;;;7.69;73.56
35848;BME280;22332;51.954;20.118;2023-04-10T00:39:27;100968.95;;;7.68;73.62
35848;BME280;22332;51.954;20.118;2023-04-10T00:42:32;100969.75;;;7.67;73.75
35848;BME280;22332;51.954;20.118;2023-04-10T00:45:38;100968.59;;;7.63;73.57
35848;BME280;22332;51.954;20.118;2023-04-10T00:48:44;100974.34;;;7.62;73.47
35848;BME280;22332;51.954;20.118;2023-04-10T00:51:50;100965.92;;;7.57;73.49
35848;BME280;22332;51.954;20.118;2023-04-10T00:54:56;100965.81;;;7.51;73.78
35848;BME280;22332;51.954;20.118;2023-04-10T00:58:02;100972.34;;;7.44;73.49
35848;BME280;22332;51.954;20.118;2023-04-10T01:01:08;100973.15;;;7.38;73.39
35848;BME280;22332;51.954;20.118;2023-04-10T01:04:16;100973.36;;;7.33;73.30
35848;BME280;22332;51.954;20.118;2023-04-10T01:07:29;100979.23;;;7.27;73.12
35848;BME280;22332;51.954;20.118;2023-04-10T01:10:47;100977.02;;;7.22;73.19
35848;BME280;22332;51.954;20.118;2023-04-10T01:14:03;100980.08;;;7.14;73.13
35848;BME280;22332;51.954;20.118;2023-04-10T01:17:13;100975.15;;;7.06;73.14
35848;BME280;22332;51.954;20.118;2023-04-10T01:20:21;100969.54;;;7.03;73.22
35848;BME280;22332;51.954;20.118;2023-04-10T01:23:42;100973.12;;;7.02;73.36
35848;BME280;22332;51.954;20.118;2023-04-10T01:27:11;100974.98;;;7.03;73.48
35848;BME280;22332;51.954;20.118;2023-04-10T01:30:18;100976.63;;;7.03;72.71
35848;BME280;22332;51.954;20.118;2023-04-10T01:33:28;100978.30;;;7.01;72.87
35848;BME280;22332;51.954;20.118;2023-04-10T01:36:41;100980.98;;;6.96;72.83
35848;BME280;22332;51.954;20.118;2023-04-10T01:39:53;100978.08;;;6.90;72.78
35848;BME280;22332;51.954;20.118;2023-04-10T01:43:07;100976.98;;;6.85;73.19
35848;BME280;22332;51.954;20.118;2023-04-10T01:46:22;100979.13;;;6.80;73.20
35848;BME280;22332;51.954;20.118;2023-04-10T01:49:30;100981.23;;;6.74;72.95
35848;BME280;22332;51.954;20.118;2023-04-10T01:52:41;100985.48;;;6.68;73.20
35848;BME280;22332;51.954;20.118;2023-04-10T01:55:55;100986.60;;;6.62;73.16
35848;BME280;22332;51.954;20.118;2023-04-10T01:59:01;100991.17;;;6.58;73.16
35848;BME280;22332;51.954;20.118;2023-04-10T02:02:08;100994.11;;;6.56;73.46
35848;BME280;22332;51.954;20.118;2023-04-10T02:05:16;100990.73;;;6.59;73.35
35848;BME280;22332;51.954;20.118;2023-04-10T02:08:25;100987.77;;;6.63;73.31
35848;BME280;22332;51.954;20.118;2023-04-10T02:11:40;100994.04;;;6.72;73.19
35848;BME280;22332;51.954;20.118;2023-04-10T02:14:49;100988.80;;;6.79;73.24
35848;BME280;22332;51.954;20.118;2023-04-10T02:17:59;100988.27;;;6.81;73.02
35848;BME280;22332;51.954;20.118;2023-04-10T02:21:08;100990.48;;;6.82;72.98
35848;BME280;22332;51.954;20.118;2023-04-10T02:24:14;100991.73;;;6.85;73.27
35848;BME280;22332;51.954;20.118;2023-04-10T02:27:29;100994.85;;;6.85;73.37
35848;BME280;22332;51.954;20.118;2023-04-10T02:30:36;100996.00;;;6.89;73.61
35848;BME280;22332;51.954;20.118;2023-04-10T02:33:42;100989.00;;;6.91;73.64
35848;BME280;22332;51.954;20.118;2023-04-10T02:36:49;100986.83;;;6.91;73.90
35848;BME280;22332;51.954;20.118;2023-04-10T02:39:56;100986.44;;;6.94;74.15
35848;BME280;22332;51.954;20.118;2023-04-10T02:43:02;100990.39;;;7.01;74.37
35848;BME280;22332;51.954;20.118;2023-04-10T02:46:08;100990.28;;;7.12;74.41
35848;BME280;22332;51.954;20.118;2023-04-10T02:49:16;100991.78;;;7.23;74.37
35848;BME280;22332;51.954;20.118;2023-04-10T02:52:22;100993.80;;;7.32;74.53
35848;BME280;22332;51.954;20.118;2023-04-10T02:55:27;100994.03;;;7.40;74.59
35848;BME280;22332;51.954;20.118;2023-04-10T02:58:33;100989.86;;;7.46;74.59
35848;BME280;22332;51.954;20.118;2023-04-10T03:01:39;100987.73;;;7.49;74.90
35848;BME280;22332;51.954;20.118;2023-04-10T03:04:45;100986.66;;;7.49;74.97
35848;BME280;22332;51.954;20.118;2023-04-10T03:07:51;100987.27;;;7.51;75.40
35848;BME280;22332;51.954;20.118;2023-04-10T03:10:57;100988.02;;;7.52;75.48
35848;BME280;22332;51.954;20.118;2023-04-10T03:14:03;100987.13;;;7.55;75.43
35848;BME280;22332;51.954;20.118;2023-04-10T03:17:08;100990.34;;;7.59;75.69
35848;BME280;22332;51.954;20.118;2023-04-10T03:20:16;100993.38;;;7.63;75.67
35848;BME280;22332;51.954;20.118;2023-04-10T03:23:21;100992.10;;;7.68;75.84
35848;BME280;22332;51.954;20.118;2023-04-10T03:26:26;100991.17;;;7.71;75.82
35848;BME280;22332;51.954;20.118;2023-04-10T03:29:32;100986.54;;;7.72;76.00
35848;BME280;22332;51.954;20.118;2023-04-10T03:32:37;100990.55;;;7.73;76.20
35848;BME280;22332;51.954;20.118;2023-04-10T03:35:46;100993.79;;;7.70;76.21
35848;BME280;22332;51.954;20.118;2023-04-10T03:38:52;100993.30;;;7.66;76.30
35848;BME280;22332;51.954;20.118;2023-04-10T03:41:57;100993.37;;;7.63;76.57
35848;BME280;22332;51.954;20.118;2023-04-10T03:45:04;100990.79;;;7.65;76.68
35848;BME280;22332;51.954;20.118;2023-04-10T03:48:10;100989.95;;;7.57;76.89
35848;BME280;22332;51.954;20.118;2023-04-10T03:51:19;100989.55;;;7.53;77.07
35848;BME280;22332;51.954;20.118;2023-04-10T03:54:28;100992.75;;;7.55;77.13
35848;BME280;22332;51.954;20.118;2023-04-10T03:57:34;100998.36;;;7.56;77.04
35848;BME280;22332;51.954;20.118;2023-04-10T04:00:41;101004.20;;;7.56;76.92
35848;BME280;22332;51.954;20.118;2023-04-10T04:04:06;101012.20;;;7.58;77.29
35848;BME280;22332;51.954;20.118;2023-04-10T04:07:32;101014.78;;;7.61;77.32
35848;BME280;22332;51.954;20.118;2023-04-10T04:10:52;101015.81;;;7.62;77.02
35848;BME280;22332;51.954;20.118;2023-04-10T04:14:10;101015.18;;;7.65;77.17
35848;BME280;22332;51.954;20.118;2023-04-10T04:17:19;101016.89;;;7.71;76.93
35848;BME280;22332;51.954;20.118;2023-04-10T04:20:43;101018.77;;;7.74;76.91
35848;BME280;22332;51.954;20.118;2023-04-10T04:24:09;101014.33;;;7.63;77.27
35848;BME280;22332;51.954;20.118;2023-04-10T04:27:53;101019.55;;;7.59;77.36
35848;BME280;22332;51.954;20.118;2023-04-10T04:31:19;101025.55;;;7.55;77.43
35848;BME280;22332;51.954;20.118;2023-04-10T04:34:27;101029.23;;;7.57;77.64
35848;BME280;22332;51.954;20.118;2023-04-10T04:37:49;101027.08;;;7.65;77.60
35848;BME280;22332;51.954;20.118;2023-04-10T04:41:20;101033.54;;;7.73;77.63
35848;BME280;22332;51.954;20.118;2023-04-10T04:44:43;101034.64;;;7.82;77.96
35848;BME280;22332;51.954;20.118;2023-04-10T04:48:14;101038.11;;;8.02;78.03
35848;BME280;22332;51.954;20.118;2023-04-10T04:51:40;101039.37;;;8.20;77.88
35848;BME280;22332;51.954;20.118;2023-04-10T04:54:50;101038.63;;;8.32;77.72
35848;BME280;22332;51.954;20.118;2023-04-10T04:58:19;101040.09;;;8.41;77.87
35848;BME280;22332;51.954;20.118;2023-04-10T05:01:41;101039.48;;;8.49;78.24
35848;BME280;22332;51.954;20.118;2023-04-10T05:04:55;101041.21;;;8.60;78.35
35848;BME280;22332;51.954;20.118;2023-04-10T05:08:07;101050.11;;;8.65;78.64
35848;BME280;22332;51.954;20.118;2023-04-10T05:11:34;101055.48;;;8.66;78.99
35848;BME280;22332;51.954;20.118;2023-04-10T05:14:54;101052.84;;;8.71;79.95
35848;BME280;22332;51.954;20.118;2023-04-10T05:18:17;101054.11;;;8.64;80.54
35848;BME280;22332;51.954;20.118;2023-04-10T05:21:37;101056.70;;;8.60;80.57
35848;BME280;22332;51.954;20.118;2023-04-10T05:24:59;101053.94;;;8.59;81.35
35848;BME280;22332;51.954;20.118;2023-04-10T05:28:17;101062.27;;;8.63;80.57
35848;BME280;22332;51.954;20.118;2023-04-10T05:31:55;101063.13;;;8.78;81.29
35848;BME280;22332;51.954;20.118;2023-04-10T05:35:28;101060.02;;;8.92;80.99
35848;BME280;22332;51.954;20.118;2023-04-10T05:38:52;101059.79;;;9.17;80.95
35848;BME280;22332;51.954;20.118;2023-04-10T05:42:30;101063.02;;;9.21;81.27
35848;BME280;22332;51.954;20.118;2023-04-10T05:46:02;101064.65;;;9.10;81.43
35848;BME280;22332;51.954;20.118;2023-04-10T05:49:17;101064.86;;;8.94;81.57
35848;BME280;22332;51.954;20.118;2023-04-10T05:52:43;101066.02;;;8.79;82.05
35848;BME280;22332;51.954;20.118;2023-04-10T05:56:10;101063.71;;;8.75;82.70
35848;BME280;22332;51.954;20.118;2023-04-10T05:59:41;101062.05;;;8.69;83.60
35848;BME280;22332;51.954;20.118;2023-04-10T06:03:17;101066.27;;;8.64;83.51
35848;BME280;22332;51.954;20.118;2023-04-10T06:06:28;101068.66;;;8.63;83.90
35848;BME280;22332;51.954;20.118;2023-04-10T06:09:34;101064.67;;;8.58;84.85
35848;BME280;22332;51.954;20.118;2023-04-10T06:12:42;101064.57;;;8.50;85.99
35848;BME280;22332;51.954;20.118;2023-04-10T06:15:48;101065.56;;;8.53;85.99
35848;BME280;22332;51.954;20.118;2023-04-10T06:18:54;101061.04;;;8.68;85.81
35848;BME280;22332;51.954;20.118;2023-04-10T06:22:00;101056.63;;;8.97;85.33
35848;BME280;22332;51.954;20.118;2023-04-10T06:25:07;101052.34;;;9.32;84.62
35848;BME280;22332;51.954;20.118;2023-04-10T06:28:12;101055.71;;;9.69;83.74
35848;BME280;22332;51.954;20.118;2023-04-10T06:31:20;101059.03;;;10.02;83.19
35848;BME280;22332;51.954;20.118;2023-04-10T06:34:26;101060.67;;;10.16;82.54
35848;BME280;22332;51.954;20.118;2023-04-10T06:37:36;101061.96;;;10.26;82.62
35848;BME280;22332;51.954;20.118;2023-04-10T06:40:42;101064.27;;;10.26;82.75
35848;BME280;22332;51.954;20.118;2023-04-10T06:43:47;101063.57;;;10.23;83.05
35848;BME280;22332;51.954;20.118;2023-04-10T06:46:53;101069.09;;;10.17;83.66
35848;BME280;22332;51.954;20.118;2023-04-10T06:49:59;101075.10;;;10.05;83.57
35848;BME280;22332;51.954;20.118;2023-04-10T06:53:04;101073.98;;;9.99;83.72
35848;BME280;22332;51.954;20.118;2023-04-10T06:56:10;101072.05;;;10.10;83.58
35848;BME280;22332;51.954;20.118;2023-04-10T06:59:15;101067.66;;;10.26;83.66
35848;BME280;22332;51.954;20.118;2023-04-10T07:02:21;101068.33;;;10.33;84.05
35848;BME280;22332;51.954;20.118;2023-04-10T07:05:26;101073.68;;;10.33;84.13
35848;BME280;22332;51.954;20.118;2023-04-10T07:08:32;101073.84;;;10.35;83.97
35848;BME280;22332;51.954;20.118;2023-04-10T07:11:37;101079.64;;;10.52;83.45
35848;BME280;22332;51.954;20.118;2023-04-10T07:14:43;101080.38;;;10.79;83.11
35848;BME280;22332;51.954;20.118;2023-04-10T07:17:48;101085.35;;;11.01;82.71
35848;BME280;22332;51.954;20.118;2023-04-10T07:20:54;101092.52;;;11.21;82.47
35848;BME280;22332;51.954;20.118;2023-04-10T07:23:59;101087.79;;;11.40;82.14
35848;BME280;22332;51.954;20.118;2023-04-10T07:27:05;101087.08;;;11.54;81.84
35848;BME280;22332;51.954;20.118;2023-04-10T07:30:11;101089.84;;;11.72;81.60
35848;BME280;22332;51.954;20.118;2023-04-10T07:33:17;101085.32;;;11.79;81.53
35848;BME280;22332;51.954;20.118;2023-04-10T07:36:22;101086.58;;;11.89;81.55
35848;BME280;22332;51.954;20.118;2023-04-10T07:39:28;101084.70;;;11.92;81.23
35848;BME280;22332;51.954;20.118;2023-04-10T07:42:33;101087.34;;;11.88;81.45
35848;BME280;22332;51.954;20.118;2023-04-10T07:45:39;101088.55;;;11.96;81.22
35848;BME280;22332;51.954;20.118;2023-04-10T07:48:45;101084.31;;;11.98;80.66
35848;BME280;22332;51.954;20.118;2023-04-10T07:51:51;101082.77;;;12.07;81.04
35848;BME280;22332;51.954;20.118;2023-04-10T07:54:56;101078.98;;;12.15;80.75
35848;BME280;22332;51.954;20.118;2023-04-10T07:58:02;101078.29;;;12.07;80.26
35848;BME280;22332;51.954;20.118;2023-04-10T08:01:07;101079.23;;;11.99;80.75
35848;BME280;22332;51.954;20.118;2023-04-10T08:04:13;101071.92;;;11.79;80.36
35848;BME280;22332;51.954;20.118;2023-04-10T08:07:19;101069.33;;;11.70;81.18
35848;BME280;22332;51.954;20.118;2023-04-10T08:10:25;101071.97;;;11.67;81.06
35848;BME280;22332;51.954;20.118;2023-04-10T08:13:30;101071.90;;;11.70;81.85
35848;BME280;22332;51.954;20.118;2023-04-10T08:16:37;101071.73;;;11.70;81.37
35848;BME280;22332;51.954;20.118;2023-04-10T08:19:43;101067.91;;;11.61;81.39
35848;BME280;22332;51.954;20.118;2023-04-10T08:22:48;101063.64;;;11.65;81.81
35848;BME280;22332;51.954;20.118;2023-04-10T08:25:54;101065.11;;;11.70;81.59
35848;BME280;22332;51.954;20.118;2023-04-10T08:29:00;101063.86;;;11.70;81.83
35848;BME280;22332;51.954;20.118;2023-04-10T08:32:06;101063.64;;;11.76;81.53
35848;BME280;22332;51.954;20.118;2023-04-10T08:35:11;101060.77;;;11.83;81.75
35848;BME280;22332;51.954;20.118;2023-04-10T08:38:17;101062.75;;;11.86;81.52
35848;BME280;22332;51.954;20.118;2023-04-10T08:41:24;101060.95;;;11.81;81.85
35848;BME280;22332;51.954;20.118;2023-04-10T08:44:30;101056.07;;;11.77;81.79
35848;BME280;22332;51.954;20.118;2023-04-10T08:47:36;101053.52;;;11.78;81.44
35848;BME280;22332;51.954;20.118;2023-04-10T08:50:45;101053.52;;;11.86;81.58
35848;BME280;22332;51.954;20.118;2023-04-10T08:53:56;101051.70;;;12.00;81.66
35848;BME280;22332;51.954;20.118;2023-04-10T08:57:03;101053.50;;;12.13;81.72
35848;BME280;22332;51.954;20.118;2023-04-10T09:00:12;101053.02;;;12.20;81.31
35848;BME280;22332;51.954;20.118;2023-04-10T09:03:18;101051.61;;;12.28;81.01
35848;BME280;22332;51.954;20.118;2023-04-10T09:06:23;101049.59;;;12.39;81.04
35848;BME280;22332;51.954;20.118;2023-04-10T09:09:29;101050.29;;;12.49;80.55
35848;BME280;22332;51.954;20.118;2023-04-10T09:12:45;101050.48;;;12.58;79.98
35848;BME280;22332;51.954;20.118;2023-04-10T09:15:58;101039.90;;;12.70;80.38
35848;BME280;22332;51.954;20.118;2023-04-10T09:19:04;101038.23;;;12.84;80.41
35848;BME280;22332;51.954;20.118;2023-04-10T09:22:10;101037.36;;;12.93;79.49
35848;BME280;22332;51.954;20.118;2023-04-10T09:25:30;101036.81;;;12.94;79.45
35848;BME280;22332;51.954;20.118;2023-04-10T09:28:56;101027.52;;;12.99;78.80
35848;BME280;22332;51.954;20.118;2023-04-10T09:32:02;101027.25;;;13.07;78.23
35848;BME280;22332;51.954;20.118;2023-04-10T09:35:09;101020.44;;;13.14;78.46
35848;BME280;22332;51.954;20.118;2023-04-10T09:38:17;101016.77;;;13.34;78.66
35848;BME280;22332;51.954;20.118;2023-04-10T09:41:22;101009.83;;;13.58;78.67
35848;BME280;22332;51.954;20.118;2023-04-10T09:44:32;101007.64;;;13.86;77.90
35848;BME280;22332;51.954;20.118;2023-04-10T09:47:38;101002.55;;;14.07;77.65
35848;BME280;22332;51.954;20.118;2023-04-10T09:50:44;101000.20;;;14.17;74.31
35848;BME280;22332;51.954;20.118;2023-04-10T09:53:49;101000.81;;;14.18;74.34
35848;BME280;22332;51.954;20.118;2023-04-10T09:56:56;101000.41;;;14.23;74.01
35848;BME280;22332;51.954;20.118;2023-04-10T10:00:03;100996.52;;;14.35;74.25
35848;BME280;22332;51.954;20.118;2023-04-10T10:03:13;100988.20;;;14.41;74.12
35848;BME280;22332;51.954;20.118;2023-04-10T10:06:19;100983.23;;;14.47;73.26
35848;BME280;22332;51.954;20.118;2023-04-10T10:09:25;100980.96;;;14.55;72.56
35848;BME280;22332;51.954;20.118;2023-04-10T10:12:38;100975.98;;;14.62;73.64
35848;BME280;22332;51.954;20.118;2023-04-10T10:15:48;100973.16;;;14.75;74.13
35848;BME280;22332;51.954;20.118;2023-04-10T10:19:03;100967.87;;;15.06;73.66
35848;BME280;22332;51.954;20.118;2023-04-10T10:22:11;100967.20;;;15.43;72.23
35848;BME280;22332;51.954;20.118;2023-04-10T10:25:18;100965.39;;;15.49;70.66
35848;BME280;22332;51.954;20.118;2023-04-10T10:28:24;100963.40;;;15.44;70.67
35848;BME280;22332;51.954;20.118;2023-04-10T10:31:33;100966.77;;;15.53;70.64
35848;BME280;22332;51.954;20.118;2023-04-10T10:34:41;100964.12;;;15.66;70.97
35848;BME280;22332;51.954;20.118;2023-04-10T10:37:46;100960.77;;;15.80;69.84
35848;BME280;22332;51.954;20.118;2023-04-10T10:40:59;100958.19;;;15.71;69.60
35848;BME280;22332;51.954;20.118;2023-04-10T10:44:10;100957.25;;;15.68;68.64
35848;BME280;22332;51.954;20.118;2023-04-10T10:47:18;100952.70;;;15.50;68.35
35848;BME280;22332;51.954;20.118;2023-04-10T10:50:24;100953.69;;;15.37;69.55
35848;BME280;22332;51.954;20.118;2023-04-10T10:53:39;100952.07;;;15.34;69.18
35848;BME280;22332;51.954;20.118;2023-04-10T10:56:45;100944.73;;;15.30;69.80
35848;BME280;22332;51.954;20.118;2023-04-10T10:59:56;100941.80;;;15.50;70.98
35848;BME280;22332;51.954;20.118;2023-04-10T11:03:27;100942.59;;;15.74;69.06
35848;BME280;22332;51.954;20.118;2023-04-10T11:06:50;100938.33;;;15.79;66.05
35848;BME280;22332;51.954;20.118;2023-04-10T11:09:56;100929.64;;;16.00;68.12
35848;BME280;22332;51.954;20.118;2023-04-10T11:13:18;100919.05;;;16.31;68.08
35848;BME280;22332;51.954;20.118;2023-04-10T11:19:59;100912.23;;;16.68;66.01
35848;BME280;22332;51.954;20.118;2023-04-10T11:23:09;100909.15;;;16.78;65.90
35848;BME280;22332;51.954;20.118;2023-04-10T11:26:40;100904.38;;;16.87;66.48
35848;BME280;22332;51.954;20.118;2023-04-10T11:29:46;100899.73;;;17.07;67.33
35848;BME280;22332;51.954;20.118;2023-04-10T11:32:51;100899.96;;;17.11;63.42
35848;BME280;22332;51.954;20.118;2023-04-10T11:35:57;100891.28;;;17.13;63.65
35848;BME280;22332;51.954;20.118;2023-04-10T11:39:06;100887.55;;;17.18;65.45
35848;BME280;22332;51.954;20.118;2023-04-10T11:42:12;100888.20;;;17.22;63.30
35848;BME280;22332;51.954;20.118;2023-04-10T11:45:26;100886.45;;;17.14;64.10
35848;BME280;22332;51.954;20.118;2023-04-10T11:48:32;100887.98;;;16.82;62.51
35848;BME280;22332;51.954;20.118;2023-04-10T11:51:38;100885.45;;;16.58;63.39
35848;BME280;22332;51.954;20.118;2023-04-10T11:54:49;100880.73;;;16.33;64.04
35848;BME280;22332;51.954;20.118;2023-04-10T11:57:54;100881.46;;;16.09;63.92
35848;BME280;22332;51.954;20.118;2023-04-10T12:01:02;100882.64;;;15.87;64.67
35848;BME280;22332;51.954;20.118;2023-04-10T12:04:15;100875.00;;;15.77;65.80
35848;BME280;22332;51.954;20.118;2023-04-10T12:07:23;100873.59;;;15.72;65.54
35848;BME280;22332;51.954;20.118;2023-04-10T12:10:45;100866.19;;;15.61;64.68
35848;BME280;22332;51.954;20.118;2023-04-10T12:13:54;100864.50;;;15.50;65.00
35848;BME280;22332;51.954;20.118;2023-04-10T12:17:00;100862.83;;;15.48;65.20
35848;BME280;22332;51.954;20.118;2023-04-10T12:20:07;100857.38;;;15.45;64.34
35848;BME280;22332;51.954;20.118;2023-04-10T12:23:13;100853.58;;;15.42;64.77
35848;BME280;22332;51.954;20.118;2023-04-10T12:26:19;100848.36;;;15.50;65.11
35848;BME280;22332;51.954;20.118;2023-04-10T12:29:27;100839.29;;;15.68;64.06
35848;BME280;22332;51.954;20.118;2023-04-10T12:32:33;100831.03;;;15.88;64.09
35848;BME280;22332;51.954;20.118;2023-04-10T12:35:39;100821.16;;;16.23;64.56
35848;BME280;22332;51.954;20.118;2023-04-10T12:38:45;100818.59;;;16.64;63.34
35848;BME280;22332;51.954;20.118;2023-04-10T12:41:51;100811.22;;;16.91;62.14
35848;BME280;22332;51.954;20.118;2023-04-10T12:44:57;100804.78;;;17.13;63.00
35848;BME280;22332;51.954;20.118;2023-04-10T12:48:03;100805.61;;;17.34;62.79
35848;BME280;22332;51.954;20.118;2023-04-10T12:51:09;100807.49;;;17.37;60.72
35848;BME280;22332;51.954;20.118;2023-04-10T12:54:29;100807.59;;;17.20;60.61
35848;BME280;22332;51.954;20.118;2023-04-10T12:57:35;100808.93;;;16.93;61.02
35848;BME280;22332;51.954;20.118;2023-04-10T13:00:41;100805.71;;;16.65;60.98
35848;BME280;22332;51.954;20.118;2023-04-10T13:03:46;100804.55;;;16.35;61.93
35848;BME280;22332;51.954;20.118;2023-04-10T13:06:52;100801.58;;;16.03;61.95
35848;BME280;22332;51.954;20.118;2023-04-10T13:09:57;100798.00;;;15.82;63.07
35848;BME280;22332;51.954;20.118;2023-04-10T13:13:03;100795.47;;;15.66;64.00
35848;BME280;22332;51.954;20.118;2023-04-10T13:16:10;100793.77;;;15.54;65.07
35848;BME280;22332;51.954;20.118;2023-04-10T13:19:17;100787.75;;;15.46;65.35
35848;BME280;22332;51.954;20.118;2023-04-10T13:22:22;100783.16;;;15.44;65.91
35848;BME280;22332;51.954;20.118;2023-04-10T13:25:28;100776.87;;;15.47;66.39
35848;BME280;22332;51.954;20.118;2023-04-10T13:28:35;100773.39;;;15.52;66.83
35848;BME280;22332;51.954;20.118;2023-04-10T13:31:41;100773.48;;;15.55;67.00
35848;BME280;22332;51.954;20.118;2023-04-10T13:34:46;100769.98;;;15.57;67.30
35848;BME280;22332;51.954;20.118;2023-04-10T13:37:52;100766.52;;;15.64;67.24
35848;BME280;22332;51.954;20.118;2023-04-10T13:40:57;100762.97;;;15.73;67.33
35848;BME280;22332;51.954;20.118;2023-04-10T13:44:02;100758.46;;;15.83;67.23
35848;BME280;22332;51.954;20.118;2023-04-10T13:47:08;100756.52;;;15.91;67.35
35848;BME280;22332;51.954;20.118;2023-04-10T13:50:13;100751.11;;;16.00;67.28
35848;BME280;22332;51.954;20.118;2023-04-10T13:53:19;100746.54;;;16.07;67.06
35848;BME280;22332;51.954;20.118;2023-04-10T13:56:24;100744.88;;;16.19;65.90
35848;BME280;22332;51.954;20.118;2023-04-10T13:59:30;100742.48;;;16.18;64.66
35848;BME280;22332;51.954;20.118;2023-04-10T14:02:35;100741.08;;;16.19;64.87
35848;BME280;22332;51.954;20.118;2023-04-10T14:05:41;100737.32;;;16.23;63.91
35848;BME280;22332;51.954;20.118;2023-04-10T14:08:48;100732.92;;;16.21;63.39
35848;BME280;22332;51.954;20.118;2023-04-10T14:11:53;100728.75;;;16.15;64.32
35848;BME280;22332;51.954;20.118;2023-04-10T14:14:59;100723.79;;;16.11;64.00
35848;BME280;22332;51.954;20.118;2023-04-10T14:18:04;100724.27;;;16.03;63.43
35848;BME280;22332;51.954;20.118;2023-04-10T14:21:10;100721.55;;;15.94;63.24
35848;BME280;22332;51.954;20.118;2023-04-10T14:24:16;100722.10;;;15.88;63.45
35848;BME280;22332;51.954;20.118;2023-04-10T14:27:21;100719.11;;;15.84;63.36
35848;BME280;22332;51.954;20.118;2023-04-10T14:30:27;100721.30;;;15.77;62.74
35848;BME280;22332;51.954;20.118;2023-04-10T14:33:34;100716.60;;;15.69;63.27
35848;BME280;22332;51.954;20.118;2023-04-10T14:36:39;100716.50;;;15.61;62.96
35848;BME280;22332;51.954;20.118;2023-04-10T14:39:45;100717.21;;;15.51;62.86
35848;BME280;22332;51.954;20.118;2023-04-10T14:42:50;100711.11;;;15.45;62.61
35848;BME280;22332;51.954;20.118;2023-04-10T14:45:56;100709.72;;;15.41;62.86
35848;BME280;22332;51.954;20.118;2023-04-10T14:49:01;100706.41;;;15.36;62.05
35848;BME280;22332;51.954;20.118;2023-04-10T14:52:07;100706.61;;;15.24;62.28
35848;BME280;22332;51.954;20.118;2023-04-10T14:55:12;100709.59;;;15.17;62.40
35848;BME280;22332;51.954;20.118;2023-04-10T14:58:18;100705.83;;;15.09;62.45
35848;BME280;22332;51.954;20.118;2023-04-10T15:01:23;100700.98;;;15.04;62.66
35848;BME280;22332;51.954;20.118;2023-04-10T15:04:29;100695.08;;;14.99;62.34
35848;BME280;22332;51.954;20.118;2023-04-10T15:07:34;100694.76;;;14.94;62.30
35848;BME280;22332;51.954;20.118;2023-04-10T15:10:40;100692.60;;;14.90;62.49
35848;BME280;22332;51.954;20.118;2023-04-10T15:13:46;100689.73;;;14.89;62.52
35848;BME280;22332;51.954;20.118;2023-04-10T15:16:51;100688.08;;;14.95;62.18
35848;BME280;22332;51.954;20.118;2023-04-10T15:19:57;100689.02;;;15.02;62.43
35848;BME280;22332;51.954;20.118;2023-04-10T15:23:02;100681.31;;;15.08;61.08
35848;BME280;22332;51.954;20.118;2023-04-10T15:26:12;100676.92;;;15.16;61.65
35848;BME280;22332;51.954;20.118;2023-04-10T15:29:18;100672.80;;;15.25;61.05
35848;BME280;22332;51.954;20.118;2023-04-10T15:32:23;100669.27;;;15.34;61.41
35848;BME280;22332;51.954;20.118;2023-04-10T15:35:29;100664.88;;;15.43;60.94
35848;BME280;22332;51.954;20.118;2023-04-10T15:38:39;100662.09;;;15.50;60.50
35848;BME280;22332;51.954;20.118;2023-04-10T15:41:45;100657.92;;;15.54;59.34
35848;BME280;22332;51.954;20.118;2023-04-10T15:44:52;100654.73;;;15.58;60.17
35848;BME280;22332;51.954;20.118;2023-04-10T15:47:58;100654.55;;;15.57;58.25
35848;BME280;22332;51.954;20.118;2023-04-10T15:51:05;100656.34;;;15.57;59.63
35848;BME280;22332;51.954;20.118;2023-04-10T15:54:11;100656.92;;;15.55;59.38
35848;BME280;22332;51.954;20.118;2023-04-10T15:57:18;100653.36;;;15.51;59.22
35848;BME280;22332;51.954;20.118;2023-04-10T16:00:23;100647.33;;;15.47;59.49
35848;BME280;22332;51.954;20.118;2023-04-10T16:03:29;100646.09;;;15.46;59.76
35848;BME280;22332;51.954;20.118;2023-04-10T16:06:34;100643.09;;;15.42;59.15
35848;BME280;22332;51.954;20.118;2023-04-10T16:09:40;100638.73;;;15.38;59.29
35848;BME280;22332;51.954;20.118;2023-04-10T16:12:45;100636.09;;;15.35;59.11
35848;BME280;22332;51.954;20.118;2023-04-10T16:15:50;100636.58;;;15.32;59.04
35848;BME280;22332;51.954;20.118;2023-04-10T16:18:56;100633.63;;;15.29;59.37
35848;BME280;22332;51.954;20.118;2023-04-10T16:22:03;100630.37;;;15.29;59.68
35848;BME280;22332;51.954;20.118;2023-04-10T16:25:09;100629.16;;;15.29;59.68